Time;durP1;ratioP1;P1;durP2;ratioP2;P2;SDS_P1;SDS_P2;PMS_P1;PMS_P2;Temp;Humidity;BMP_temperature;BMP_pressure;BME280_temperature;BME280_humidity;BME280_pressure;Samples;Min_cycle;Max_cycle;Signal;HPM_P1;HPM_P2
2023/01/09 00:01:16;;;;;;;;;;;;;;;7.52;83.06;96610.22;7375633;19;19922;-84
2023/01/09 00:03:42;;;;;;;;;;;;;;;7.55;82.89;96605.41;7379597;19;19919;-82
2023/01/09 00:06:09;;;;;;;;;;;;;;;7.57;82.85;96597.34;7374491;19;20254;-82
2023/01/09 00:08:39;;;;;;;;;;;;;;;7.52;83.07;96602.31;7378544;19;19919;-82
2023/01/09 00:11:06;;;;;;;;;;;;;;;7.66;82.63;96599.72;7377292;19;19925;-84
2023/01/09 00:13:34;;;;;;;;;;;;;;;7.56;82.55;96608.88;7372941;19;19911;-81
2023/01/09 00:16:03;;;;;;;;;;;;;;;7.58;82.77;96599.81;7374589;19;19923;-82
2023/01/09 00:18:29;;;;;;;;;;;;;;;7.56;82.47;96595.72;7377946;19;20388;-81
2023/01/09 00:20:58;;;;;;;;;;;;;;;7.58;82.69;96594.53;7374934;19;21309;-82
2023/01/09 00:23:25;;;;;;;;;;;;;;;7.57;82.49;96595.53;7374350;19;19915;-81
2023/01/09 00:26:00;;;;;;;;;;;;;;;7.58;82.36;96589.28;7375755;19;19911;-84
2023/01/09 00:28:26;;;;;;;;;;;;;;;7.91;81.56;96589.72;7380205;19;19922;-83
2023/01/09 00:30:57;;;;;;;;;;;;;;;7.91;81.48;96587.09;7378120;19;20382;-83
2023/01/09 00:33:31;;;;;;;;;;;;;;;8.04;81.36;96593.53;7379889;19;19935;-84
2023/01/09 00:35:58;;;;;;;;;;;;;;;8.00;81.42;96602.78;7374265;19;21850;-85
2023/01/09 00:38:24;;;;;;;;;;;;;;;8.16;81.10;96597.31;7379840;19;20202;-84
2023/01/09 00:40:51;;;;;;;;;;;;;;;8.18;81.42;96594.50;7377159;19;19915;-84
2023/01/09 00:43:17;;;;;;;;;;;;;;;7.91;82.46;96600.25;7381777;19;19946;-84
2023/01/09 00:45:44;;;;;;;;;;;;;;;7.87;82.51;96598.16;7381340;19;19922;-85
2023/01/09 00:48:13;;;;;;;;;;;;;;;7.90;82.84;96593.34;7380088;19;19921;-84
2023/01/09 00:50:39;;;;;;;;;;;;;;;7.99;82.79;96599.34;7382799;19;19914;-83
2023/01/09 00:53:13;;;;;;;;;;;;;;;7.96;82.90;96606.78;7381797;19;19914;-85
2023/01/09 00:55:39;;;;;;;;;;;;;;;7.89;83.36;96604.06;7377350;19;19915;-84
2023/01/09 00:58:11;;;;;;;;;;;;;;;7.94;83.27;96601.69;7377965;19;19952;-83
2023/01/09 01:00:38;;;;;;;;;;;;;;;7.80;83.70;96605.97;7378829;19;19918;-84
2023/01/09 01:03:04;;;;;;;;;;;;;;;7.67;83.76;96587.38;7377582;19;20571;-84
2023/01/09 01:08:17;;;;;;;;;;;;;;;7.79;83.41;96590.34;7395378;19;19918;-84
2023/01/09 01:10:44;;;;;;;;;;;;;;;7.71;83.79;96588.63;7393063;19;19929;-85
2023/01/09 01:13:10;;;;;;;;;;;;;;;7.74;83.46;96588.28;7385603;19;20041;-85
2023/01/09 01:15:38;;;;;;;;;;;;;;;7.93;83.37;96596.63;7384791;19;19927;-85
2023/01/09 01:18:05;;;;;;;;;;;;;;;7.80;83.15;96590.19;7387597;19;19929;-84
2023/01/09 01:20:31;;;;;;;;;;;;;;;7.96;82.87;96588.38;7386510;19;19927;-84
2023/01/09 01:22:58;;;;;;;;;;;;;;;7.77;83.13;96576.56;7379481;19;19922;-84
2023/01/09 01:25:24;;;;;;;;;;;;;;;7.91;82.92;96579.19;7386098;19;19943;-84
2023/01/09 01:27:51;;;;;;;;;;;;;;;7.81;83.00;96589.16;7384455;19;19947;-84
2023/01/09 01:30:18;;;;;;;;;;;;;;;7.77;83.45;96587.91;7384235;19;19923;-84
2023/01/09 01:32:45;;;;;;;;;;;;;;;7.77;83.31;96582.66;7386133;19;19914;-84
2023/01/09 01:35:11;;;;;;;;;;;;;;;7.91;82.80;96581.81;7381264;19;19915;-84
2023/01/09 01:37:39;;;;;;;;;;;;;;;8.00;82.68;96582.53;7382444;19;19933;-83
2023/01/09 01:40:07;;;;;;;;;;;;;;;7.82;82.95;96575.03;7383483;19;20266;-84
2023/01/09 01:42:35;;;;;;;;;;;;;;;7.80;83.23;96571.75;7380206;19;19939;-85
2023/01/09 01:45:04;;;;;;;;;;;;;;;7.99;82.77;96580.91;7377524;19;19922;-86
2023/01/09 01:47:42;;;;;;;;;;;;;;;7.92;82.66;96577.38;7379878;19;19923;-85
2023/01/09 01:50:21;;;;;;;;;;;;;;;7.84;82.87;96567.75;7380311;19;19944;-84
2023/01/09 01:52:50;;;;;;;;;;;;;;;7.98;82.63;96571.38;7383384;19;19923;-84
2023/01/09 01:55:17;;;;;;;;;;;;;;;8.11;82.15;96568.91;7381864;19;19921;-88
2023/01/09 01:57:44;;;;;;;;;;;;;;;7.99;82.53;96575.63;7381069;19;19935;-83
2023/01/09 02:00:11;;;;;;;;;;;;;;;8.03;82.20;96573.44;7381057;19;20950;-85
2023/01/09 02:02:38;;;;;;;;;;;;;;;7.71;83.40;96578.09;7378054;19;20222;-85
2023/01/09 02:05:04;;;;;;;;;;;;;;;7.58;83.73;96584.03;7371833;19;19947;-83
2023/01/09 02:07:31;;;;;;;;;;;;;;;7.67;83.92;96590.00;7378282;19;19954;-87
2023/01/09 02:09:58;;;;;;;;;;;;;;;7.92;83.01;96580.00;7379874;19;19914;-85
2023/01/09 02:12:25;;;;;;;;;;;;;;;7.93;82.23;96594.00;7377196;19;19925;-86
2023/01/09 02:14:57;;;;;;;;;;;;;;;7.95;82.46;96581.44;7376860;19;19997;-84
2023/01/09 02:17:44;;;;;;;;;;;;;;;8.00;82.23;96566.72;7382838;19;19919;-85
2023/01/09 02:20:25;;;;;;;;;;;;;;;8.04;82.08;96567.19;7386738;19;20268;-87
2023/01/09 02:23:11;;;;;;;;;;;;;;;7.99;82.12;96572.19;7384370;19;19919;-87
2023/01/09 02:26:01;;;;;;;;;;;;;;;8.13;81.73;96571.34;7382583;19;19915;-87
2023/01/09 02:28:39;;;;;;;;;;;;;;;8.02;82.10;96574.47;7385095;19;19939;-85
2023/01/09 02:31:13;;;;;;;;;;;;;;;8.14;81.45;96563.25;7384378;19;19919;-86
2023/01/09 02:33:53;;;;;;;;;;;;;;;8.03;81.52;96565.53;7388446;19;20995;-84
2023/01/09 02:36:30;;;;;;;;;;;;;;;8.16;81.42;96559.63;7383921;19;19910;-86
2023/01/09 02:39:06;;;;;;;;;;;;;;;8.01;81.25;96557.03;7380545;19;19917;-86
2023/01/09 02:41:33;;;;;;;;;;;;;;;8.03;81.59;96557.66;7388423;19;19959;-88
2023/01/09 02:44:18;;;;;;;;;;;;;;;8.07;81.08;96557.09;7387974;19;19914;-86
2023/01/09 02:46:45;;;;;;;;;;;;;;;8.02;81.26;96558.66;7389384;19;19918;-86
2023/01/09 02:49:12;;;;;;;;;;;;;;;7.99;81.68;96580.91;7385105;19;19986;-86
2023/01/09 02:51:48;;;;;;;;;;;;;;;7.94;82.04;96580.63;7383066;19;19925;-85
2023/01/09 02:54:14;;;;;;;;;;;;;;;8.02;81.86;96580.53;7382795;19;19955;-86
2023/01/09 02:56:59;;;;;;;;;;;;;;;8.02;81.97;96579.72;7385738;19;20293;-85
2023/01/09 02:59:44;;;;;;;;;;;;;;;7.90;82.14;96587.28;7384097;19;19921;-85
2023/01/09 03:02:33;;;;;;;;;;;;;;;8.09;81.95;96570.09;7378205;19;20306;-86
2023/01/09 03:04:59;;;;;;;;;;;;;;;8.06;81.77;96581.00;7379929;19;19923;-87
2023/01/09 03:07:29;;;;;;;;;;;;;;;8.03;81.68;96589.25;7381751;19;20233;-86
2023/01/09 03:09:59;;;;;;;;;;;;;;;7.83;82.35;96592.44;7381093;19;19919;-85
2023/01/09 03:12:27;;;;;;;;;;;;;;;7.98;81.91;96599.50;7377200;19;19915;-85
2023/01/09 03:14:55;;;;;;;;;;;;;;;8.04;81.77;96598.78;7376505;19;19946;-85
2023/01/09 03:17:23;;;;;;;;;;;;;;;7.91;81.92;96604.69;7383835;19;19915;-84
2023/01/09 03:19:51;;;;;;;;;;;;;;;7.84;81.46;96609.88;7381048;19;19934;-83
2023/01/09 03:22:18;;;;;;;;;;;;;;;7.93;81.85;96612.44;7378187;19;19918;-86
2023/01/09 03:24:44;;;;;;;;;;;;;;;7.97;81.48;96608.41;7381176;19;20292;-84
2023/01/09 03:27:11;;;;;;;;;;;;;;;8.00;81.22;96613.31;7384328;19;19918;-87
2023/01/09 03:29:37;;;;;;;;;;;;;;;7.93;81.20;96607.16;7380962;19;19939;-86
2023/01/09 03:32:04;;;;;;;;;;;;;;;7.81;81.36;96601.53;7381485;19;19926;-84
2023/01/09 03:34:31;;;;;;;;;;;;;;;7.80;81.96;96613.88;7386017;19;20587;-85
2023/01/09 03:36:57;;;;;;;;;;;;;;;7.80;82.28;96628.84;7384207;19;19919;-86
2023/01/09 03:39:24;;;;;;;;;;;;;;;7.82;81.93;96630.31;7381357;19;22314;-84
2023/01/09 03:41:50;;;;;;;;;;;;;;;7.81;82.13;96635.75;7384930;19;19926;-86
2023/01/09 03:44:17;;;;;;;;;;;;;;;7.79;81.85;96649.06;7380565;19;19926;-86
2023/01/09 03:46:44;;;;;;;;;;;;;;;7.77;81.76;96661.63;7383310;19;19931;-85
2023/01/09 03:49:12;;;;;;;;;;;;;;;7.62;82.12;96658.16;7382273;19;19951;-86
2023/01/09 03:51:39;;;;;;;;;;;;;;;7.68;82.42;96676.66;7380832;19;19979;-85
2023/01/09 03:54:05;;;;;;;;;;;;;;;7.59;82.53;96690.09;7376480;19;19910;-87
2023/01/09 03:56:32;;;;;;;;;;;;;;;7.67;82.35;96697.91;7379738;19;19946;-85
2023/01/09 03:58:59;;;;;;;;;;;;;;;7.62;82.22;96700.25;7381633;19;19930;-87
2023/01/09 04:01:26;;;;;;;;;;;;;;;7.53;82.54;96712.69;7380563;19;19930;-87
2023/01/09 04:03:52;;;;;;;;;;;;;;;7.60;82.73;96718.03;7384249;19;19929;-86
2023/01/09 04:06:19;;;;;;;;;;;;;;;7.42;82.83;96740.19;7379845;19;20866;-87
2023/01/09 04:08:46;;;;;;;;;;;;;;;7.41;83.22;96766.69;7384321;19;19918;-89
2023/01/09 04:11:13;;;;;;;;;;;;;;;7.48;82.78;96778.97;7380381;19;19919;-86
2023/01/09 04:13:43;;;;;;;;;;;;;;;7.28;82.54;96784.88;7378468;19;19926;-87
2023/01/09 04:16:10;;;;;;;;;;;;;;;6.83;82.24;96784.63;7372310;19;19915;-85
2023/01/09 04:18:37;;;;;;;;;;;;;;;7.08;81.81;96801.06;7381894;19;20451;-85
2023/01/09 04:21:03;;;;;;;;;;;;;;;6.92;80.79;96807.22;7377975;19;20670;-85
2023/01/09 04:23:30;;;;;;;;;;;;;;;6.83;80.99;96821.41;7372143;19;19929;-87
2023/01/09 04:25:57;;;;;;;;;;;;;;;6.51;80.97;96838.94;7369658;19;19918;-85
2023/01/09 04:28:24;;;;;;;;;;;;;;;6.64;80.76;96827.88;7390845;19;19920;-85
2023/01/09 04:30:51;;;;;;;;;;;;;;;6.61;80.84;96844.00;7405858;19;19921;-86
2023/01/09 04:33:18;;;;;;;;;;;;;;;6.65;80.75;96839.22;7395704;19;19922;-86
2023/01/09 04:35:44;;;;;;;;;;;;;;;6.59;80.09;96838.91;7383812;19;19927;-86
2023/01/09 04:38:11;;;;;;;;;;;;;;;6.54;79.47;96843.84;7383222;19;19983;-85
2023/01/09 04:40:38;;;;;;;;;;;;;;;6.58;79.42;96853.03;7384813;19;20376;-85
2023/01/09 04:43:05;;;;;;;;;;;;;;;6.43;79.76;96846.81;7381038;19;19930;-87
2023/01/09 04:45:32;;;;;;;;;;;;;;;6.46;79.50;96843.03;7380372;19;19922;-84
2023/01/09 04:47:58;;;;;;;;;;;;;;;6.44;79.52;96856.34;7376040;19;20001;-87
2023/01/09 04:50:25;;;;;;;;;;;;;;;6.54;80.14;96853.53;7383018;19;19914;-86
2023/01/09 04:52:52;;;;;;;;;;;;;;;6.52;79.32;96863.38;7384860;19;19915;-85
2023/01/09 04:55:19;;;;;;;;;;;;;;;6.54;79.15;96872.75;7378823;19;19923;-86
2023/01/09 04:57:45;;;;;;;;;;;;;;;6.51;78.74;96865.19;7380860;19;19918;-82
2023/01/09 05:00:12;;;;;;;;;;;;;;;6.32;79.09;96868.19;7378031;19;19925;-85
2023/01/09 05:02:39;;;;;;;;;;;;;;;6.33;79.14;96865.38;7380589;19;19922;-85
2023/01/09 05:05:06;;;;;;;;;;;;;;;6.36;78.65;96866.84;7374953;19;20503;-85
2023/01/09 05:07:36;;;;;;;;;;;;;;;6.22;78.64;96870.97;7379666;19;19923;-84
2023/01/09 05:10:03;;;;;;;;;;;;;;;6.46;78.43;96872.75;7380514;19;19918;-85
2023/01/09 05:12:30;;;;;;;;;;;;;;;6.30;78.33;96880.66;7379120;19;19918;-85
2023/01/09 05:14:56;;;;;;;;;;;;;;;6.27;78.66;96883.63;7367672;19;20233;-85
2023/01/09 05:17:23;;;;;;;;;;;;;;;6.32;78.45;96887.38;7372893;19;20501;-86
2023/01/09 05:19:49;;;;;;;;;;;;;;;6.32;78.32;96891.81;7375042;19;19924;-84
2023/01/09 05:22:16;;;;;;;;;;;;;;;6.51;77.56;96899.34;7374368;19;19946;-85
2023/01/09 05:24:43;;;;;;;;;;;;;;;6.48;77.72;96918.06;7369637;19;19915;-85
2023/01/09 05:27:09;;;;;;;;;;;;;;;6.38;77.90;96922.69;7375298;19;19915;-84
2023/01/09 05:29:36;;;;;;;;;;;;;;;6.45;78.31;96928.06;7378365;19;19921;-85
2023/01/09 05:32:02;;;;;;;;;;;;;;;6.43;78.05;96935.31;7375985;19;19915;-86
2023/01/09 05:34:32;;;;;;;;;;;;;;;6.36;77.68;96937.78;7375977;19;20783;-85
2023/01/09 05:37:01;;;;;;;;;;;;;;;6.29;78.19;96939.41;7376593;19;19929;-86
2023/01/09 05:39:28;;;;;;;;;;;;;;;6.41;77.71;96942.53;7373239;19;19925;-85
2023/01/09 05:41:58;;;;;;;;;;;;;;;6.36;77.80;96946.47;7369049;19;19974;-85
2023/01/09 05:44:25;;;;;;;;;;;;;;;6.33;77.58;96959.94;7371425;19;20436;-85
2023/01/09 05:46:52;;;;;;;;;;;;;;;6.10;77.84;96958.94;7376592;19;19951;-84
2023/01/09 05:49:18;;;;;;;;;;;;;;;6.20;77.84;96969.28;7367063;19;20523;-84
2023/01/09 05:51:45;;;;;;;;;;;;;;;6.07;77.56;96973.19;7375910;19;20324;-84
2023/01/09 05:54:11;;;;;;;;;;;;;;;6.20;77.25;96980.59;7380749;19;19929;-84
2023/01/09 05:56:38;;;;;;;;;;;;;;;6.21;76.90;96990.13;7379216;19;19919;-83
2023/01/09 05:59:06;;;;;;;;;;;;;;;6.31;77.51;97001.28;7379640;19;19923;-85
2023/01/09 06:01:38;;;;;;;;;;;;;;;6.10;76.79;96995.69;7376085;19;19923;-84
2023/01/09 06:04:05;;;;;;;;;;;;;;;6.27;76.21;96994.75;7369960;19;19911;-84
2023/01/09 06:06:31;;;;;;;;;;;;;;;6.11;76.35;96992.09;7379311;19;20320;-84
2023/01/09 06:08:58;;;;;;;;;;;;;;;5.88;76.57;96997.09;7384208;19;20692;-85
2023/01/09 06:11:25;;;;;;;;;;;;;;;5.93;76.73;96994.81;7384910;19;20396;-84
2023/01/09 06:13:51;;;;;;;;;;;;;;;5.96;76.55;96991.91;7378077;19;19903;-84
2023/01/09 06:16:18;;;;;;;;;;;;;;;5.88;76.15;97011.03;7380186;19;19923;-83
2023/01/09 06:18:45;;;;;;;;;;;;;;;5.92;77.50;97006.28;7378048;19;19947;-84
2023/01/09 06:21:11;;;;;;;;;;;;;;;6.03;75.89;97005.19;7376439;19;20636;-84
2023/01/09 06:23:38;;;;;;;;;;;;;;;5.93;77.01;97006.16;7378689;19;20268;-84
2023/01/09 06:26:05;;;;;;;;;;;;;;;5.96;76.80;97018.16;7373727;19;20337;-84
2023/01/09 06:28:31;;;;;;;;;;;;;;;5.98;76.30;97010.94;7376717;19;19915;-84
2023/01/09 06:30:58;;;;;;;;;;;;;;;5.77;76.77;97013.97;7374293;19;19922;-84
2023/01/09 06:33:24;;;;;;;;;;;;;;;5.79;76.27;97017.22;7376362;19;19915;-84
2023/01/09 06:35:51;;;;;;;;;;;;;;;5.80;76.54;97021.50;7375053;19;19922;-85
2023/01/09 06:38:18;;;;;;;;;;;;;;;5.61;77.94;97033.09;7379203;19;20621;-84
2023/01/09 06:40:45;;;;;;;;;;;;;;;5.65;77.27;97038.81;7382305;19;19925;-84
2023/01/09 06:43:12;;;;;;;;;;;;;;;5.78;77.04;97036.59;7380167;19;19915;-84
2023/01/09 06:45:38;;;;;;;;;;;;;;;5.86;76.99;97036.63;7382201;19;19925;-84
2023/01/09 06:48:05;;;;;;;;;;;;;;;5.70;76.36;97032.13;7380704;19;19918;-84
2023/01/09 06:50:32;;;;;;;;;;;;;;;5.67;77.02;97037.69;7378480;19;19930;-84
2023/01/09 06:52:59;;;;;;;;;;;;;;;5.46;77.41;97040.72;7379351;19;19942;-84
2023/01/09 06:55:25;;;;;;;;;;;;;;;5.43;77.86;97038.41;7385987;19;20001;-84
2023/01/09 06:57:52;;;;;;;;;;;;;;;5.35;77.71;97045.41;7383562;19;19926;-84
2023/01/09 07:00:19;;;;;;;;;;;;;;;5.37;77.40;97044.28;7379628;19;19950;-84
2023/01/09 07:02:46;;;;;;;;;;;;;;;5.33;77.19;97044.75;7382875;19;19914;-84
2023/01/09 07:05:13;;;;;;;;;;;;;;;5.32;77.82;97043.06;7376091;19;19918;-84
2023/01/09 07:07:40;;;;;;;;;;;;;;;5.30;78.02;97048.50;7373976;19;19954;-84
2023/01/09 07:10:07;;;;;;;;;;;;;;;5.41;78.30;97047.41;7377388;19;19929;-84
2023/01/09 07:12:33;;;;;;;;;;;;;;;5.52;78.14;97051.56;7380147;19;20234;-83
2023/01/09 07:15:00;;;;;;;;;;;;;;;5.63;78.12;97054.72;7377228;19;19930;-84
2023/01/09 07:17:27;;;;;;;;;;;;;;;5.88;77.80;97054.84;7381174;19;19939;-84
2023/01/09 07:19:53;;;;;;;;;;;;;;;5.94;77.60;97057.66;7378806;19;19923;-83
2023/01/09 07:22:20;;;;;;;;;;;;;;;5.92;78.35;97054.38;7377988;19;19915;-83
2023/01/09 07:24:46;;;;;;;;;;;;;;;6.21;77.88;97054.97;7377969;19;20371;-84
2023/01/09 07:27:13;;;;;;;;;;;;;;;6.23;77.95;97059.06;7379035;19;19939;-84
2023/01/09 07:29:40;;;;;;;;;;;;;;;6.01;77.23;97063.13;7378438;19;19922;-84
2023/01/09 07:32:06;;;;;;;;;;;;;;;5.96;77.44;97065.41;7375362;19;19918;-83
2023/01/09 07:34:33;;;;;;;;;;;;;;;5.92;77.32;97058.78;7371693;19;20014;-82
2023/01/09 07:36:59;;;;;;;;;;;;;;;5.84;77.13;97059.56;7370394;19;19931;-82
2023/01/09 07:39:26;;;;;;;;;;;;;;;5.97;76.91;97067.03;7378739;19;20018;-85
2023/01/09 07:41:53;;;;;;;;;;;;;;;5.89;77.00;97075.66;7378802;19;19918;-82
2023/01/09 07:44:19;;;;;;;;;;;;;;;5.92;76.42;97074.53;7373016;19;20337;-85
2023/01/09 07:46:46;;;;;;;;;;;;;;;5.88;76.29;97073.22;7374796;19;19929;-83
2023/01/09 07:49:15;;;;;;;;;;;;;;;5.90;75.82;97071.25;7377853;19;19914;-82
2023/01/09 07:51:43;;;;;;;;;;;;;;;5.90;75.48;97082.56;7376756;19;19918;-81
2023/01/09 07:54:11;;;;;;;;;;;;;;;6.02;75.66;97085.75;7374329;19;19914;-81
2023/01/09 07:56:38;;;;;;;;;;;;;;;5.96;75.16;97080.34;7372593;19;19921;-82
2023/01/09 07:59:05;;;;;;;;;;;;;;;6.01;75.42;97089.38;7375513;19;19919;-80
2023/01/09 08:01:31;;;;;;;;;;;;;;;6.14;75.68;97095.00;7377645;19;19922;-83
2023/01/09 08:03:58;;;;;;;;;;;;;;;6.08;75.52;97100.88;7371985;19;19947;-81
2023/01/09 08:06:28;;;;;;;;;;;;;;;6.19;75.71;97107.66;7375565;19;20022;-82
2023/01/09 08:08:56;;;;;;;;;;;;;;;6.35;75.31;97107.69;7379060;19;19950;-83
2023/01/09 08:11:23;;;;;;;;;;;;;;;6.55;75.56;97107.41;7381034;19;19934;-83
2023/01/09 08:13:52;;;;;;;;;;;;;;;6.60;75.68;97103.31;7383860;19;19939;-83
2023/01/09 08:16:19;;;;;;;;;;;;;;;6.77;75.11;97105.97;7378057;19;20273;-84
2023/01/09 08:18:45;;;;;;;;;;;;;;;6.93;74.68;97102.53;7375844;19;19922;-83
2023/01/09 08:21:13;;;;;;;;;;;;;;;6.92;74.10;97098.25;7376830;19;19918;-82
2023/01/09 08:23:39;;;;;;;;;;;;;;;7.08;74.67;97098.22;7371217;19;20260;-83
2023/01/09 08:26:06;;;;;;;;;;;;;;;7.00;74.69;97090.34;7371009;19;19923;-84
2023/01/09 08:28:32;;;;;;;;;;;;;;;7.06;74.46;97099.38;7377284;19;19918;-84
2023/01/09 08:30:59;;;;;;;;;;;;;;;7.24;74.29;97100.03;7377234;19;19910;-81
2023/01/09 08:33:26;;;;;;;;;;;;;;;7.07;73.43;97085.28;7382360;19;19922;-82
2023/01/09 08:35:53;;;;;;;;;;;;;;;6.87;73.49;97082.94;7379444;19;19923;-81
2023/01/09 08:38:21;;;;;;;;;;;;;;;6.79;73.61;97086.44;7383556;19;19923;-83
2023/01/09 08:40:47;;;;;;;;;;;;;;;6.79;73.96;97091.69;7383695;19;20595;-85
2023/01/09 08:48:46;;;;;;;;;;;;;;;6.69;73.91;97098.06;7384139;19;20745;-84
2023/01/09 08:51:13;;;;;;;;;;;;;;;6.72;73.90;97092.50;7381057;19;19949;-82
2023/01/09 08:53:39;;;;;;;;;;;;;;;6.91;73.56;97086.91;7379706;19;19910;-83
2023/01/09 08:56:06;;;;;;;;;;;;;;;6.84;73.56;97085.09;7382661;19;19935;-82
2023/01/09 08:58:33;;;;;;;;;;;;;;;6.86;74.57;97089.22;7378212;19;19930;-84
2023/01/09 09:01:03;;;;;;;;;;;;;;;6.74;73.70;97095.75;7375488;19;19910;-82
2023/01/09 09:03:29;;;;;;;;;;;;;;;6.79;74.56;97089.06;7378596;19;19915;-83
2023/01/09 09:06:02;;;;;;;;;;;;;;;7.02;73.83;97093.66;7374608;19;20132;-85
2023/01/09 09:08:29;;;;;;;;;;;;;;;6.96;74.09;97081.16;7377139;19;19924;-84
2023/01/09 09:10:56;;;;;;;;;;;;;;;7.08;73.32;97082.47;7379880;19;20548;-83
2023/01/09 09:13:23;;;;;;;;;;;;;;;7.03;72.86;97075.09;7371452;19;19911;-83
2023/01/09 09:15:50;;;;;;;;;;;;;;;6.84;72.44;97070.16;7377265;19;20366;-82
2023/01/09 09:18:17;;;;;;;;;;;;;;;7.09;72.70;97076.22;7377152;19;20043;-84
2023/01/09 09:20:43;;;;;;;;;;;;;;;7.29;72.39;97066.16;7382368;19;19927;-84
2023/01/09 09:23:10;;;;;;;;;;;;;;;7.09;72.11;97072.78;7379974;19;19910;-83
2023/01/09 09:25:38;;;;;;;;;;;;;;;7.09;71.00;97070.97;7378434;19;20529;-81
2023/01/09 09:28:04;;;;;;;;;;;;;;;7.23;71.69;97083.44;7374513;19;19925;-83
2023/01/09 09:30:31;;;;;;;;;;;;;;;7.19;71.43;97090.03;7374813;19;19911;-82
2023/01/09 09:32:58;;;;;;;;;;;;;;;7.32;70.37;97097.41;7377202;19;19938;-82
2023/01/09 09:35:25;;;;;;;;;;;;;;;7.35;70.83;97104.97;7379129;19;19938;-84
2023/01/09 09:38:01;;;;;;;;;;;;;;;7.37;71.22;97107.44;7378366;19;19925;-83
2023/01/09 09:40:34;;;;;;;;;;;;;;;7.72;71.38;97108.84;7381276;19;20314;-81
2023/01/09 09:46:07;;;;;;;;;;;;;;;8.01;69.81;97108.25;7376011;19;19926;-81
2023/01/09 09:48:36;;;;;;;;;;;;;;;7.99;69.33;97109.41;7376827;19;19925;-83
2023/01/09 09:51:18;;;;;;;;;;;;;;;8.08;69.62;97116.28;7372357;19;20241;-84
2023/01/09 09:53:59;;;;;;;;;;;;;;;8.01;70.14;97116.16;7375562;19;19914;-81
2023/01/09 09:56:26;;;;;;;;;;;;;;;8.14;69.16;97126.97;7373530;19;20374;-83
2023/01/09 09:58:57;;;;;;;;;;;;;;;8.01;70.05;97116.16;7376017;19;19930;-84
2023/01/09 10:01:26;;;;;;;;;;;;;;;8.26;69.73;97124.78;7372157;19;19986;-84
2023/01/09 10:03:53;;;;;;;;;;;;;;;8.01;69.59;97115.34;7369671;19;19914;-83
2023/01/09 10:06:23;;;;;;;;;;;;;;;7.78;70.35;97121.34;7367364;19;19921;-83
2023/01/09 10:08:52;;;;;;;;;;;;;;;8.03;70.01;97113.34;7373282;19;19919;-84
2023/01/09 10:11:20;;;;;;;;;;;;;;;8.13;68.29;97113.97;7373596;19;22724;-83
2023/01/09 10:14:05;;;;;;;;;;;;;;;7.84;70.06;97109.28;7368387;19;19927;-84
2023/01/09 10:16:54;;;;;;;;;;;;;;;7.87;69.82;97099.28;7377330;19;19954;-84
2023/01/09 10:19:56;;;;;;;;;;;;;;;7.92;70.42;97090.84;7372503;19;19915;-83
2023/01/09 10:22:28;;;;;;;;;;;;;;;7.87;70.47;97080.84;7363773;19;19907;-83
2023/01/09 10:25:07;;;;;;;;;;;;;;;8.05;69.31;97079.75;7367695;19;19925;-82
2023/01/09 10:27:52;;;;;;;;;;;;;;;8.07;68.73;97083.03;7372814;19;19998;-83
2023/01/09 10:30:38;;;;;;;;;;;;;;;8.24;69.62;97079.34;7368499;19;19915;-83
2023/01/09 10:33:13;;;;;;;;;;;;;;;8.19;68.63;97073.78;7370344;19;19915;-84
2023/01/09 10:36:07;;;;;;;;;;;;;;;8.13;68.94;97083.16;7376123;19;19922;-85
2023/01/09 10:38:35;;;;;;;;;;;;;;;8.35;67.85;97062.34;7374370;19;19915;-84
2023/01/09 10:41:02;;;;;;;;;;;;;;;8.41;68.11;97066.13;7375910;19;20278;-82
2023/01/09 10:43:38;;;;;;;;;;;;;;;8.54;68.26;97061.91;7379079;19;19940;-83
2023/01/09 10:46:06;;;;;;;;;;;;;;;8.18;68.56;97058.94;7377620;19;19928;-83
2023/01/09 10:48:36;;;;;;;;;;;;;;;8.35;67.94;97057.88;7377067;19;19998;-81
2023/01/09 10:51:04;;;;;;;;;;;;;;;8.54;67.07;97056.63;7372311;19;20240;-82
2023/01/09 10:53:37;;;;;;;;;;;;;;;8.54;67.33;97061.91;7377031;19;19923;-83
2023/01/09 10:56:12;;;;;;;;;;;;;;;8.38;68.26;97058.53;7367390;19;19918;-83
2023/01/09 10:58:39;;;;;;;;;;;;;;;8.30;68.63;97051.50;7375940;19;19947;-85
2023/01/09 11:01:06;;;;;;;;;;;;;;;8.31;68.84;97050.47;7375672;19;19915;-82
2023/01/09 11:03:33;;;;;;;;;;;;;;;8.49;68.98;97052.88;7378738;19;19910;-82
2023/01/09 11:05:59;;;;;;;;;;;;;;;8.44;69.00;97057.84;7377768;19;19961;-81
2023/01/09 11:08:33;;;;;;;;;;;;;;;8.45;67.28;97057.69;7380373;19;19951;-83
2023/01/09 11:11:00;;;;;;;;;;;;;;;8.51;68.15;97058.81;7376514;19;19915;-86
2023/01/09 11:13:31;;;;;;;;;;;;;;;8.56;68.64;97057.28;7374560;19;19929;-83
2023/01/09 11:16:04;;;;;;;;;;;;;;;8.25;68.14;97048.56;7370091;19;19919;-83
2023/01/09 11:18:31;;;;;;;;;;;;;;;8.53;67.82;97049.72;7375950;19;19922;-83
2023/01/09 11:21:17;;;;;;;;;;;;;;;8.47;67.35;97052.22;7373609;19;19921;-84
2023/01/09 11:23:43;;;;;;;;;;;;;;;8.53;68.18;97062.06;7376251;19;19943;-83
2023/01/09 11:26:20;;;;;;;;;;;;;;;8.37;67.53;97047.16;7380413;19;19915;-82
2023/01/09 11:28:57;;;;;;;;;;;;;;;8.62;68.39;97050.47;7383256;19;19936;-82
2023/01/09 11:31:24;;;;;;;;;;;;;;;8.34;67.76;97040.41;7378764;19;19914;-81
2023/01/09 11:33:51;;;;;;;;;;;;;;;8.59;67.92;97037.66;7382375;19;20280;-84
2023/01/09 11:36:18;;;;;;;;;;;;;;;8.37;67.31;97031.34;7376149;19;20229;-81
2023/01/09 11:38:55;;;;;;;;;;;;;;;8.57;67.70;97040.47;7374842;19;20597;-82
2023/01/09 11:41:22;;;;;;;;;;;;;;;8.88;66.70;97038.75;7370640;19;19922;-82
2023/01/09 11:43:49;;;;;;;;;;;;;;;8.68;67.32;97035.78;7376530;19;19926;-84
2023/01/09 11:46:31;;;;;;;;;;;;;;;8.64;67.73;97037.94;7372677;19;20639;-82
2023/01/09 11:48:59;;;;;;;;;;;;;;;8.65;67.23;97033.50;7374378;19;19936;-81
2023/01/09 11:51:27;;;;;;;;;;;;;;;8.63;67.08;97028.38;7376251;19;19910;-84
2023/01/09 11:53:59;;;;;;;;;;;;;;;8.67;68.39;97028.88;7368861;19;19926;-84
2023/01/09 11:56:26;;;;;;;;;;;;;;;8.75;66.97;97018.25;7376763;19;20662;-84
2023/01/09 11:58:53;;;;;;;;;;;;;;;8.55;67.35;97012.63;7378885;19;20253;-82
2023/01/09 12:01:38;;;;;;;;;;;;;;;8.41;67.41;97014.22;7376347;19;19914;-84
2023/01/09 12:04:17;;;;;;;;;;;;;;;8.40;68.32;97020.50;7373342;19;19922;-84
2023/01/09 12:06:43;;;;;;;;;;;;;;;8.23;68.11;97018.91;7375369;19;19918;-83
2023/01/09 12:09:16;;;;;;;;;;;;;;;8.69;67.71;97017.16;7375105;19;19919;-83
2023/01/09 12:12:04;;;;;;;;;;;;;;;8.70;67.06;97018.78;7389817;19;19919;-85
2023/01/09 12:14:49;;;;;;;;;;;;;;;8.69;65.56;97016.31;7383082;19;19925;-84
2023/01/09 12:17:19;;;;;;;;;;;;;;;8.77;66.55;97013.63;7389073;19;19922;-86
2023/01/09 12:20:04;;;;;;;;;;;;;;;9.04;65.89;97022.78;7391370;19;19930;-85
2023/01/09 12:22:43;;;;;;;;;;;;;;;8.89;67.09;97022.75;7391148;19;19915;-84
2023/01/09 12:25:18;;;;;;;;;;;;;;;8.76;65.20;97018.06;7380184;19;19922;-85
2023/01/09 12:27:45;;;;;;;;;;;;;;;8.98;65.39;97021.69;7386551;19;20301;-86
2023/01/09 12:30:33;;;;;;;;;;;;;;;8.63;66.69;97024.94;7384255;19;19919;-82
2023/01/09 12:33:19;;;;;;;;;;;;;;;8.77;66.13;97032.09;7384952;19;19911;-86
2023/01/09 12:35:56;;;;;;;;;;;;;;;8.44;67.51;97036.78;7385442;19;20257;-84
2023/01/09 12:38:26;;;;;;;;;;;;;;;8.61;67.21;97037.47;7378058;19;19918;-83
2023/01/09 12:41:11;;;;;;;;;;;;;;;8.50;67.17;97038.69;7386048;19;19910;-86
2023/01/09 12:43:56;;;;;;;;;;;;;;;8.54;67.16;97050.53;7386231;19;19921;-85
2023/01/09 12:46:27;;;;;;;;;;;;;;;8.20;67.40;97058.78;7376680;19;19918;-81
2023/01/09 12:48:56;;;;;;;;;;;;;;;7.93;70.51;97067.97;7379529;19;19943;-82
2023/01/09 12:51:34;;;;;;;;;;;;;;;7.70;73.85;97068.72;7377379;19;20349;-83
2023/01/09 12:54:02;;;;;;;;;;;;;;;7.64;75.31;97077.28;7379803;19;19939;-84
2023/01/09 12:56:34;;;;;;;;;;;;;;;7.72;76.36;97073.81;7381243;19;19959;-83
2023/01/09 12:59:04;;;;;;;;;;;;;;;7.67;76.89;97080.41;7384594;19;19936;-86
2023/01/09 13:01:36;;;;;;;;;;;;;;;7.81;76.84;97072.78;7384985;19;19915;-84
2023/01/09 13:04:16;;;;;;;;;;;;;;;7.98;76.55;97070.91;7382599;19;19915;-83
2023/01/09 13:06:50;;;;;;;;;;;;;;;7.90;76.14;97077.03;7386019;19;19926;-84
2023/01/09 13:09:20;;;;;;;;;;;;;;;7.93;75.14;97071.44;7383240;19;19974;-85
2023/01/09 13:11:53;;;;;;;;;;;;;;;7.68;75.58;97068.88;7386186;19;19962;-84
2023/01/09 13:14:39;;;;;;;;;;;;;;;7.75;75.61;97068.22;7383431;19;19907;-88
2023/01/09 13:17:06;;;;;;;;;;;;;;;7.98;74.71;97069.09;7380581;19;19918;-84
2023/01/09 13:19:34;;;;;;;;;;;;;;;7.78;75.28;97065.22;7383835;19;20229;-84
2023/01/09 13:22:01;;;;;;;;;;;;;;;7.74;75.90;97072.66;7383229;19;19919;-89